sensor_id;sensor_type;location;lat;lon;timestamp;pressure;altitude;pressure_sealevel;temperature;humidity
15193;BME280;7697;51.630;7.484;2023-03-04T00:01:21;101728.69;;;5.57;84.73
15193;BME280;7697;51.630;7.484;2023-03-04T00:06:25;101736.19;;;5.61;84.82
15193;BME280;7697;51.630;7.484;2023-03-04T00:11:26;101728.81;;;5.55;85.39
15193;BME280;7697;51.630;7.484;2023-03-04T00:16:28;101720.09;;;5.55;85.59
15193;BME280;7697;51.630;7.484;2023-03-04T00:21:32;101729.38;;;5.59;84.96
15193;BME280;7697;51.630;7.484;2023-03-04T00:26:34;101729.38;;;5.59;85.49
15193;BME280;7697;51.630;7.484;2023-03-04T00:31:36;101741.31;;;5.63;85.17
15193;BME280;7697;51.630;7.484;2023-03-04T00:36:39;101711.44;;;5.54;85.39
15193;BME280;7697;51.630;7.484;2023-03-04T00:41:43;101729.53;;;5.67;85.69
15193;BME280;7697;51.630;7.484;2023-03-04T00:46:45;101728.81;;;5.65;84.71
15193;BME280;7697;51.630;7.484;2023-03-04T00:51:48;101725.09;;;5.68;85.28
15193;BME280;7697;51.630;7.484;2023-03-04T00:56:50;101704.91;;;5.58;85.16
15193;BME280;7697;51.630;7.484;2023-03-04T01:01:52;101721.25;;;5.62;85.73
15193;BME280;7697;51.630;7.484;2023-03-04T01:06:55;101706.72;;;5.58;85.84
15193;BME280;7697;51.630;7.484;2023-03-04T01:11:57;101707.13;;;5.63;85.40
15193;BME280;7697;51.630;7.484;2023-03-04T01:16:59;101709.47;;;5.56;85.77
15193;BME280;7697;51.630;7.484;2023-03-04T01:22:02;101696.19;;;5.58;85.56
15193;BME280;7697;51.630;7.484;2023-03-04T01:27:04;101701.19;;;5.61;85.67
15193;BME280;7697;51.630;7.484;2023-03-04T01:32:06;101696.91;;;5.60;85.27
15193;BME280;7697;51.630;7.484;2023-03-04T01:37:09;101693.84;;;5.64;85.91
15193;BME280;7697;51.630;7.484;2023-03-04T01:42:16;101699.66;;;5.68;85.58
15193;BME280;7697;51.630;7.484;2023-03-04T01:47:21;101689.00;;;5.60;85.90
15193;BME280;7697;51.630;7.484;2023-03-04T01:52:26;101689.41;;;5.65;86.35
15193;BME280;7697;51.630;7.484;2023-03-04T01:57:34;101693.56;;;5.68;85.94
15193;BME280;7697;51.630;7.484;2023-03-04T02:02:35;101676.16;;;5.57;86.52
15193;BME280;7697;51.630;7.484;2023-03-04T02:07:38;101696.06;;;5.69;85.88
15193;BME280;7697;51.630;7.484;2023-03-04T02:12:40;101682.78;;;5.61;86.04
15193;BME280;7697;51.630;7.484;2023-03-04T02:17:42;101672.56;;;5.58;85.72
15193;BME280;7697;51.630;7.484;2023-03-04T02:22:52;101677.41;;;5.62;86.80
15193;BME280;7697;51.630;7.484;2023-03-04T02:27:57;101664.66;;;5.58;85.99
15193;BME280;7697;51.630;7.484;2023-03-04T02:32:59;101647.94;;;5.59;86.38
15193;BME280;7697;51.630;7.484;2023-03-04T02:38:01;101658.56;;;5.67;86.31
15193;BME280;7697;51.630;7.484;2023-03-04T02:43:04;101659.97;;;5.71;86.23
15193;BME280;7697;51.630;7.484;2023-03-04T02:48:07;101654.84;;;5.70;86.23
15193;BME280;7697;51.630;7.484;2023-03-04T02:53:24;101655.69;;;5.70;86.21
15193;BME280;7697;51.630;7.484;2023-03-04T02:58:26;101651.25;;;5.71;86.54
15193;BME280;7697;51.630;7.484;2023-03-04T03:03:27;101640.59;;;5.72;86.16
15193;BME280;7697;51.630;7.484;2023-03-04T03:08:30;101638.38;;;5.77;86.41
15193;BME280;7697;51.630;7.484;2023-03-04T03:13:34;101624.16;;;5.70;86.31
15193;BME280;7697;51.630;7.484;2023-03-04T03:18:36;101626.06;;;5.68;86.60
15193;BME280;7697;51.630;7.484;2023-03-04T03:23:39;101623.44;;;5.68;86.37
15193;BME280;7697;51.630;7.484;2023-03-04T03:28:41;101625.81;;;5.71;86.23
15193;BME280;7697;51.630;7.484;2023-03-04T03:33:43;101614.59;;;5.69;86.10
15193;BME280;7697;51.630;7.484;2023-03-04T03:38:46;101622.22;;;5.72;86.46
15193;BME280;7697;51.630;7.484;2023-03-04T03:43:47;101622.50;;;5.69;86.73
15193;BME280;7697;51.630;7.484;2023-03-04T03:48:49;101623.44;;;5.68;86.74
15193;BME280;7697;51.630;7.484;2023-03-04T03:53:52;101618.34;;;5.66;87.06
15193;BME280;7697;51.630;7.484;2023-03-04T03:58:54;101608.41;;;5.60;86.57
15193;BME280;7697;51.630;7.484;2023-03-04T04:03:55;101626.06;;;5.68;86.51
15193;BME280;7697;51.630;7.484;2023-03-04T04:08:59;101607.13;;;5.64;86.52
15193;BME280;7697;51.630;7.484;2023-03-04T04:14:00;101610.88;;;5.62;86.92
15193;BME280;7697;51.630;7.484;2023-03-04T04:19:02;101616.97;;;5.72;86.24
15193;BME280;7697;51.630;7.484;2023-03-04T04:24:05;101608.53;;;5.69;86.50
15193;BME280;7697;51.630;7.484;2023-03-04T04:29:07;101607.25;;;5.73;86.38
15193;BME280;7697;51.630;7.484;2023-03-04T04:34:09;101616.66;;;5.75;86.93
15193;BME280;7697;51.630;7.484;2023-03-04T04:39:13;101613.63;;;5.70;86.92
15193;BME280;7697;51.630;7.484;2023-03-04T04:44:15;101609.34;;;5.69;86.82
15193;BME280;7697;51.630;7.484;2023-03-04T04:49:17;101622.22;;;5.72;87.26
15193;BME280;7697;51.630;7.484;2023-03-04T04:54:20;101627.47;;;5.72;87.22
15193;BME280;7697;51.630;7.484;2023-03-04T04:59:22;101628.00;;;5.76;87.10
15193;BME280;7697;51.630;7.484;2023-03-04T05:04:24;101621.94;;;5.65;86.93
15193;BME280;7697;51.630;7.484;2023-03-04T05:09:27;101621.53;;;5.70;86.60
15193;BME280;7697;51.630;7.484;2023-03-04T05:14:29;101611.00;;;5.70;86.86
15193;BME280;7697;51.630;7.484;2023-03-04T05:19:30;101617.47;;;5.76;87.09
15193;BME280;7697;51.630;7.484;2023-03-04T05:24:35;101615.69;;;5.76;87.24
15193;BME280;7697;51.630;7.484;2023-03-04T05:29:37;101620.66;;;5.79;87.03
15193;BME280;7697;51.630;7.484;2023-03-04T05:34:39;101620.53;;;5.81;87.86
15193;BME280;7697;51.630;7.484;2023-03-04T05:39:42;101615.41;;;5.79;87.83
15193;BME280;7697;51.630;7.484;2023-03-04T05:44:44;101603.81;;;5.72;88.06
15193;BME280;7697;51.630;7.484;2023-03-04T05:49:46;101626.34;;;5.75;87.49
15193;BME280;7697;51.630;7.484;2023-03-04T05:54:49;101612.38;;;5.64;87.61
15193;BME280;7697;51.630;7.484;2023-03-04T05:59:50;101617.50;;;5.66;87.81
15193;BME280;7697;51.630;7.484;2023-03-04T06:04:52;101616.81;;;5.64;87.98
15193;BME280;7697;51.630;7.484;2023-03-04T06:09:55;101616.16;;;5.62;87.71
15193;BME280;7697;51.630;7.484;2023-03-04T06:14:57;101632.03;;;5.70;88.02
15193;BME280;7697;51.630;7.484;2023-03-04T06:19:59;101636.00;;;5.74;87.96
15193;BME280;7697;51.630;7.484;2023-03-04T06:25:03;101628.56;;;5.70;87.46
15193;BME280;7697;51.630;7.484;2023-03-04T06:30:06;101640.16;;;5.77;87.96
15193;BME280;7697;51.630;7.484;2023-03-04T06:35:08;101640.59;;;5.72;87.67
15193;BME280;7697;51.630;7.484;2023-03-04T06:40:12;101637.81;;;5.74;88.40
15193;BME280;7697;51.630;7.484;2023-03-04T06:45:14;101648.63;;;5.80;88.08
15193;BME280;7697;51.630;7.484;2023-03-04T06:50:16;101649.28;;;5.82;88.50
15193;BME280;7697;51.630;7.484;2023-03-04T06:55:19;101663.41;;;5.81;88.15
15193;BME280;7697;51.630;7.484;2023-03-04T07:00:21;101657.03;;;5.74;88.11
15193;BME280;7697;51.630;7.484;2023-03-04T07:05:24;101664.53;;;5.79;88.21
15193;BME280;7697;51.630;7.484;2023-03-04T07:10:27;101669.78;;;5.79;88.83
15193;BME280;7697;51.630;7.484;2023-03-04T07:15:29;101671.31;;;5.81;88.18
15193;BME280;7697;51.630;7.484;2023-03-04T07:20:31;101662.03;;;5.77;89.24
15193;BME280;7697;51.630;7.484;2023-03-04T07:25:37;101671.97;;;5.83;89.27
15193;BME280;7697;51.630;7.484;2023-03-04T07:30:39;101667.66;;;5.82;89.55
15193;BME280;7697;51.630;7.484;2023-03-04T07:35:41;101667.03;;;5.90;89.99
15193;BME280;7697;51.630;7.484;2023-03-04T07:40:44;101679.16;;;6.00;90.96
15193;BME280;7697;51.630;7.484;2023-03-04T07:45:46;101667.69;;;5.92;91.51
15193;BME280;7697;51.630;7.484;2023-03-04T07:50:47;101669.31;;;6.02;91.29
15193;BME280;7697;51.630;7.484;2023-03-04T07:55:50;101673.00;;;6.19;91.79
15193;BME280;7697;51.630;7.484;2023-03-04T08:00:52;101658.75;;;6.22;91.57
15193;BME280;7697;51.630;7.484;2023-03-04T08:05:54;101660.25;;;6.34;91.68
15193;BME280;7697;51.630;7.484;2023-03-04T08:10:57;101667.66;;;6.48;91.83
15193;BME280;7697;51.630;7.484;2023-03-04T08:15:59;101665.34;;;6.63;91.47
15193;BME280;7697;51.630;7.484;2023-03-04T08:21:01;101664.00;;;6.59;91.13
15193;BME280;7697;51.630;7.484;2023-03-04T08:26:10;101667.66;;;6.75;90.89
15193;BME280;7697;51.630;7.484;2023-03-04T08:31:13;101660.13;;;6.81;90.86
15193;BME280;7697;51.630;7.484;2023-03-04T08:36:15;101652.16;;;6.90;89.62
15193;BME280;7697;51.630;7.484;2023-03-04T08:41:18;101652.03;;;6.92;90.15
15193;BME280;7697;51.630;7.484;2023-03-04T08:46:20;101658.06;;;7.02;89.46
15193;BME280;7697;51.630;7.484;2023-03-04T08:51:22;101665.22;;;7.09;89.81
15193;BME280;7697;51.630;7.484;2023-03-04T08:56:25;101653.41;;;7.13;90.14
15193;BME280;7697;51.630;7.484;2023-03-04T09:01:27;101661.69;;;7.19;89.14
15193;BME280;7697;51.630;7.484;2023-03-04T09:06:29;101668.66;;;7.10;89.99
15193;BME280;7697;51.630;7.484;2023-03-04T09:11:33;101653.56;;;7.12;90.41
15193;BME280;7697;51.630;7.484;2023-03-04T09:16:35;101656.47;;;7.09;91.91
15193;BME280;7697;51.630;7.484;2023-03-04T09:21:37;101660.47;;;7.13;92.55
15193;BME280;7697;51.630;7.484;2023-03-04T09:26:40;101663.56;;;7.26;92.57
15193;BME280;7697;51.630;7.484;2023-03-04T09:31:42;101649.13;;;7.30;91.70
15193;BME280;7697;51.630;7.484;2023-03-04T09:36:44;101647.31;;;7.31;91.61
15193;BME280;7697;51.630;7.484;2023-03-04T09:41:49;101648.81;;;7.33;91.73
15193;BME280;7697;51.630;7.484;2023-03-04T09:46:58;101644.13;;;7.27;92.42
15193;BME280;7697;51.630;7.484;2023-03-04T09:52:03;101643.38;;;7.35;92.22
15193;BME280;7697;51.630;7.484;2023-03-04T09:57:21;101651.00;;;7.38;93.16
15193;BME280;7697;51.630;7.484;2023-03-04T10:02:33;101651.53;;;7.41;93.30
15193;BME280;7697;51.630;7.484;2023-03-04T10:07:42;101641.19;;;7.48;94.32
15193;BME280;7697;51.630;7.484;2023-03-04T10:12:49;101640.34;;;7.65;93.98
15193;BME280;7697;51.630;7.484;2023-03-04T10:17:56;101622.09;;;7.72;92.82
15193;BME280;7697;51.630;7.484;2023-03-04T10:23:08;101629.84;;;7.73;92.70
15193;BME280;7697;51.630;7.484;2023-03-04T10:28:16;101623.53;;;7.66;92.85
15193;BME280;7697;51.630;7.484;2023-03-04T10:33:19;101633.66;;;7.79;92.86
15193;BME280;7697;51.630;7.484;2023-03-04T10:38:22;101630.00;;;7.72;93.70
15193;BME280;7697;51.630;7.484;2023-03-04T10:43:26;101630.56;;;7.58;94.94
15193;BME280;7697;51.630;7.484;2023-03-04T10:48:30;101625.28;;;7.58;94.62
15193;BME280;7697;51.630;7.484;2023-03-04T10:53:36;101624.97;;;7.61;94.40
15193;BME280;7697;51.630;7.484;2023-03-04T10:58:39;101626.69;;;7.70;94.33
15193;BME280;7697;51.630;7.484;2023-03-04T11:03:45;101612.69;;;7.69;94.90
15193;BME280;7697;51.630;7.484;2023-03-04T11:08:55;101607.66;;;7.84;93.92
15193;BME280;7697;51.630;7.484;2023-03-04T11:14:00;101611.00;;;7.86;94.18
15193;BME280;7697;51.630;7.484;2023-03-04T11:19:05;101610.16;;;7.85;93.98
15193;BME280;7697;51.630;7.484;2023-03-04T11:24:12;101606.53;;;7.86;94.16
15193;BME280;7697;51.630;7.484;2023-03-04T11:29:20;101600.06;;;7.81;94.79
15193;BME280;7697;51.630;7.484;2023-03-04T11:34:33;101604.50;;;7.80;94.49
15193;BME280;7697;51.630;7.484;2023-03-04T11:39:38;101595.72;;;7.72;95.81
15193;BME280;7697;51.630;7.484;2023-03-04T11:44:43;101583.38;;;7.72;96.28
15193;BME280;7697;51.630;7.484;2023-03-04T11:55:32;101593.84;;;7.90;97.52
15193;BME280;7697;51.630;7.484;2023-03-04T12:00:42;101583.00;;;7.93;97.14
15193;BME280;7697;51.630;7.484;2023-03-04T12:05:55;101574.78;;;7.96;97.06
15193;BME280;7697;51.630;7.484;2023-03-04T12:11:02;101559.97;;;8.03;97.42
15193;BME280;7697;51.630;7.484;2023-03-04T12:16:18;101555.41;;;8.13;97.83
15193;BME280;7697;51.630;7.484;2023-03-04T12:21:32;101541.88;;;8.16;98.19
15193;BME280;7697;51.630;7.484;2023-03-04T12:26:44;101537.13;;;8.28;98.07
15193;BME280;7697;51.630;7.484;2023-03-04T12:31:52;101530.72;;;8.31;98.18
15193;BME280;7697;51.630;7.484;2023-03-04T12:37:15;101527.38;;;8.20;98.30
15193;BME280;7697;51.630;7.484;2023-03-04T12:42:27;101533.66;;;8.27;98.72
15193;BME280;7697;51.630;7.484;2023-03-04T12:47:36;101517.31;;;8.24;98.82
15193;BME280;7697;51.630;7.484;2023-03-04T12:52:50;101508.44;;;8.25;98.45
15193;BME280;7697;51.630;7.484;2023-03-04T12:57:56;101508.47;;;8.33;98.04
15193;BME280;7697;51.630;7.484;2023-03-04T13:03:09;101502.38;;;8.33;97.86
15193;BME280;7697;51.630;7.484;2023-03-04T13:08:25;101513.97;;;8.40;97.50
15193;BME280;7697;51.630;7.484;2023-03-04T13:13:38;101496.31;;;8.40;97.92
15193;BME280;7697;51.630;7.484;2023-03-04T13:18:42;101501.25;;;8.43;97.36
15193;BME280;7697;51.630;7.484;2023-03-04T13:23:44;101481.94;;;8.43;96.89
15193;BME280;7697;51.630;7.484;2023-03-04T13:28:51;101485.91;;;8.47;96.41
15193;BME280;7697;51.630;7.484;2023-03-04T13:34:00;101488.25;;;8.50;95.30
15193;BME280;7697;51.630;7.484;2023-03-04T13:39:20;101493.53;;;8.58;94.32
15193;BME280;7697;51.630;7.484;2023-03-04T13:44:56;101489.72;;;8.52;93.08
15193;BME280;7697;51.630;7.484;2023-03-04T13:50:40;101479.16;;;8.52;91.00
15193;BME280;7697;51.630;7.484;2023-03-04T13:56:02;101473.69;;;8.46;90.16
15193;BME280;7697;51.630;7.484;2023-03-04T14:01:23;101474.38;;;8.40;90.52
15193;BME280;7697;51.630;7.484;2023-03-04T14:06:28;101471.22;;;8.36;89.78
15193;BME280;7697;51.630;7.484;2023-03-04T14:11:37;101468.00;;;8.24;89.90
15193;BME280;7697;51.630;7.484;2023-03-04T14:16:47;101457.31;;;8.26;89.85
15193;BME280;7697;51.630;7.484;2023-03-04T14:21:51;101457.16;;;8.27;88.10
15193;BME280;7697;51.630;7.484;2023-03-04T14:27:05;101451.84;;;8.19;88.65
15193;BME280;7697;51.630;7.484;2023-03-04T14:32:11;101459.78;;;8.27;87.90
15193;BME280;7697;51.630;7.484;2023-03-04T14:37:21;101454.34;;;8.21;88.51
15193;BME280;7697;51.630;7.484;2023-03-04T14:42:24;101443.63;;;8.31;86.72
15193;BME280;7697;51.630;7.484;2023-03-04T14:47:35;101447.97;;;8.32;87.30
15193;BME280;7697;51.630;7.484;2023-03-04T14:52:41;101436.41;;;8.33;87.25
15193;BME280;7697;51.630;7.484;2023-03-04T14:57:45;101422.88;;;8.36;86.70
15193;BME280;7697;51.630;7.484;2023-03-04T15:02:48;101436.91;;;8.52;85.51
15193;BME280;7697;51.630;7.484;2023-03-04T15:07:53;101423.25;;;8.49;84.20
15193;BME280;7697;51.630;7.484;2023-03-04T15:12:57;101405.75;;;8.48;84.13
15193;BME280;7697;51.630;7.484;2023-03-04T15:18:02;101414.81;;;8.61;83.08
15193;BME280;7697;51.630;7.484;2023-03-04T15:23:06;101406.56;;;8.56;83.11
15193;BME280;7697;51.630;7.484;2023-03-04T15:28:14;101401.75;;;8.60;82.20
15193;BME280;7697;51.630;7.484;2023-03-04T15:33:18;101396.69;;;8.58;83.01
15193;BME280;7697;51.630;7.484;2023-03-04T15:38:21;101414.81;;;8.61;81.82
15193;BME280;7697;51.630;7.484;2023-03-04T15:43:23;101406.88;;;8.53;81.10
15193;BME280;7697;51.630;7.484;2023-03-04T15:48:27;101403.41;;;8.53;81.34
15193;BME280;7697;51.630;7.484;2023-03-04T15:53:33;101397.31;;;8.52;78.33
15193;BME280;7697;51.630;7.484;2023-03-04T15:58:36;101406.06;;;8.53;77.18
15193;BME280;7697;51.630;7.484;2023-03-04T16:03:38;101401.13;;;8.50;76.79
15193;BME280;7697;51.630;7.484;2023-03-04T16:08:43;101394.19;;;8.41;77.37
15193;BME280;7697;51.630;7.484;2023-03-04T16:13:45;101405.56;;;8.41;77.84
15193;BME280;7697;51.630;7.484;2023-03-04T16:18:47;101407.22;;;8.34;78.71
15193;BME280;7697;51.630;7.484;2023-03-04T16:23:51;101393.00;;;8.27;78.81
15193;BME280;7697;51.630;7.484;2023-03-04T16:28:53;101386.72;;;8.20;79.94
15193;BME280;7697;51.630;7.484;2023-03-04T16:33:55;101402.72;;;8.26;79.44
15193;BME280;7697;51.630;7.484;2023-03-04T16:39:02;101399.09;;;8.19;80.88
15193;BME280;7697;51.630;7.484;2023-03-04T16:44:05;101407.47;;;8.15;81.25
15193;BME280;7697;51.630;7.484;2023-03-04T16:49:08;101401.38;;;8.14;80.93
15193;BME280;7697;51.630;7.484;2023-03-04T16:54:16;101400.22;;;8.09;80.98
15193;BME280;7697;51.630;7.484;2023-03-04T16:59:19;101407.81;;;8.12;81.51
15193;BME280;7697;51.630;7.484;2023-03-04T17:04:21;101405.50;;;8.09;82.16
15193;BME280;7697;51.630;7.484;2023-03-04T17:09:24;101401.38;;;8.06;81.88
15193;BME280;7697;51.630;7.484;2023-03-04T17:14:26;101414.91;;;8.03;81.96
15193;BME280;7697;51.630;7.484;2023-03-04T17:19:28;101414.75;;;8.05;81.12
15193;BME280;7697;51.630;7.484;2023-03-04T17:24:31;101423.13;;;8.08;79.39
15193;BME280;7697;51.630;7.484;2023-03-04T17:29:33;101430.38;;;7.98;80.06
15193;BME280;7697;51.630;7.484;2023-03-04T17:34:34;101428.38;;;7.92;81.50
15193;BME280;7697;51.630;7.484;2023-03-04T17:39:38;101434.28;;;7.78;80.85
15193;BME280;7697;51.630;7.484;2023-03-04T17:44:40;101438.03;;;7.67;79.77
15193;BME280;7697;51.630;7.484;2023-03-04T17:49:41;101432.84;;;7.49;80.79
15193;BME280;7697;51.630;7.484;2023-03-04T17:54:45;101442.03;;;7.45;81.31
15193;BME280;7697;51.630;7.484;2023-03-04T17:59:47;101438.91;;;7.42;81.44
15193;BME280;7697;51.630;7.484;2023-03-04T18:04:49;101434.09;;;7.37;81.26
15193;BME280;7697;51.630;7.484;2023-03-04T18:09:52;101436.38;;;7.32;81.22
15193;BME280;7697;51.630;7.484;2023-03-04T18:14:54;101437.00;;;7.26;82.57
15193;BME280;7697;51.630;7.484;2023-03-04T18:19:55;101446.22;;;7.22;82.03
15193;BME280;7697;51.630;7.484;2023-03-04T18:24:58;101426.38;;;7.10;83.23
15193;BME280;7697;51.630;7.484;2023-03-04T18:30:00;101418.94;;;7.05;82.27
15193;BME280;7697;51.630;7.484;2023-03-04T18:35:02;101437.19;;;7.07;83.42
15193;BME280;7697;51.630;7.484;2023-03-04T18:40:09;101437.38;;;7.05;83.68
15193;BME280;7697;51.630;7.484;2023-03-04T18:45:11;101439.78;;;6.99;83.13
15193;BME280;7697;51.630;7.484;2023-03-04T18:50:13;101430.41;;;6.96;83.72
15193;BME280;7697;51.630;7.484;2023-03-04T18:55:16;101440.94;;;6.96;84.34
15193;BME280;7697;51.630;7.484;2023-03-04T19:00:20;101432.38;;;6.94;84.44
15193;BME280;7697;51.630;7.484;2023-03-04T19:05:24;101441.44;;;7.00;84.76
15193;BME280;7697;51.630;7.484;2023-03-04T19:10:28;101438.16;;;6.98;84.97
15193;BME280;7697;51.630;7.484;2023-03-04T19:15:29;101438.75;;;6.92;84.75
15193;BME280;7697;51.630;7.484;2023-03-04T19:20:31;101438.91;;;6.90;84.93
15193;BME280;7697;51.630;7.484;2023-03-04T19:25:35;101446.16;;;6.88;85.11
15193;BME280;7697;51.630;7.484;2023-03-04T19:30:38;101452.53;;;6.86;84.85
15193;BME280;7697;51.630;7.484;2023-03-04T19:35:41;101453.50;;;6.85;84.30
15193;BME280;7697;51.630;7.484;2023-03-04T19:40:44;101461.41;;;6.85;84.95
15193;BME280;7697;51.630;7.484;2023-03-04T19:45:51;101458.47;;;6.88;84.35
15193;BME280;7697;51.630;7.484;2023-03-04T19:50:53;101461.94;;;6.88;84.76
15193;BME280;7697;51.630;7.484;2023-03-04T19:55:56;101454.50;;;6.84;84.16
15193;BME280;7697;51.630;7.484;2023-03-04T20:00:57;101467.13;;;6.80;84.34
15193;BME280;7697;51.630;7.484;2023-03-04T20:06:03;101459.69;;;6.75;85.02
15193;BME280;7697;51.630;7.484;2023-03-04T20:11:11;101463.78;;;6.70;85.24
15193;BME280;7697;51.630;7.484;2023-03-04T20:16:13;101459.25;;;6.62;85.15
15193;BME280;7697;51.630;7.484;2023-03-04T20:21:15;101470.38;;;6.56;85.27
15193;BME280;7697;51.630;7.484;2023-03-04T20:26:18;101465.41;;;6.53;84.71
15193;BME280;7697;51.630;7.484;2023-03-04T20:31:22;101466.84;;;6.48;85.04
15193;BME280;7697;51.630;7.484;2023-03-04T20:36:25;101463.78;;;6.52;84.11
15193;BME280;7697;51.630;7.484;2023-03-04T20:41:30;101468.16;;;6.44;83.78
15193;BME280;7697;51.630;7.484;2023-03-04T20:46:36;101461.66;;;6.38;84.24
15193;BME280;7697;51.630;7.484;2023-03-04T20:51:41;101459.34;;;6.35;84.42
15193;BME280;7697;51.630;7.484;2023-03-04T20:56:44;101455.63;;;6.28;84.14
15193;BME280;7697;51.630;7.484;2023-03-04T21:01:46;101457.63;;;6.26;84.11
15193;BME280;7697;51.630;7.484;2023-03-04T21:06:48;101463.16;;;6.23;83.76
15193;BME280;7697;51.630;7.484;2023-03-04T21:11:52;101449.78;;;6.16;84.16
15193;BME280;7697;51.630;7.484;2023-03-04T21:16:56;101444.00;;;6.13;83.46
15193;BME280;7697;51.630;7.484;2023-03-04T21:21:59;101449.25;;;6.13;83.67
15193;BME280;7697;51.630;7.484;2023-03-04T21:27:03;101444.75;;;6.05;84.03
15193;BME280;7697;51.630;7.484;2023-03-04T21:32:10;101437.00;;;6.03;83.92
15193;BME280;7697;51.630;7.484;2023-03-04T21:37:13;101440.81;;;6.09;83.34
15193;BME280;7697;51.630;7.484;2023-03-04T21:42:16;101434.81;;;5.99;83.19
15193;BME280;7697;51.630;7.484;2023-03-04T21:47:18;101432.63;;;5.94;83.54
15193;BME280;7697;51.630;7.484;2023-03-04T21:52:20;101434.00;;;5.98;83.40
15193;BME280;7697;51.630;7.484;2023-03-04T21:57:23;101433.31;;;5.96;83.00
15193;BME280;7697;51.630;7.484;2023-03-04T22:02:25;101420.16;;;5.96;83.05
15193;BME280;7697;51.630;7.484;2023-03-04T22:07:26;101419.75;;;5.91;82.67
15193;BME280;7697;51.630;7.484;2023-03-04T22:12:30;101408.97;;;5.94;82.86
15193;BME280;7697;51.630;7.484;2023-03-04T22:17:32;101390.34;;;5.88;82.31
15193;BME280;7697;51.630;7.484;2023-03-04T22:22:34;101392.09;;;5.87;81.29
15193;BME280;7697;51.630;7.484;2023-03-04T22:27:37;101415.13;;;6.03;81.76
15193;BME280;7697;51.630;7.484;2023-03-04T22:32:39;101412.66;;;6.01;81.52
15193;BME280;7697;51.630;7.484;2023-03-04T22:37:41;101393.19;;;5.94;81.88
15193;BME280;7697;51.630;7.484;2023-03-04T22:42:45;101402.53;;;6.07;82.54
15193;BME280;7697;51.630;7.484;2023-03-04T22:47:48;101408.44;;;6.09;81.71
15193;BME280;7697;51.630;7.484;2023-03-04T22:52:50;101399.66;;;6.00;82.30
15193;BME280;7697;51.630;7.484;2023-03-04T22:57:54;101392.50;;;5.92;81.77
15193;BME280;7697;51.630;7.484;2023-03-04T23:02:56;101383.13;;;5.90;82.95
15193;BME280;7697;51.630;7.484;2023-03-04T23:07:58;101384.22;;;5.87;82.92
15193;BME280;7697;51.630;7.484;2023-03-04T23:13:01;101383.38;;;5.96;83.19
15193;BME280;7697;51.630;7.484;2023-03-04T23:18:03;101376.16;;;5.98;82.83
15193;BME280;7697;51.630;7.484;2023-03-04T23:23:05;101371.88;;;5.97;83.30
15193;BME280;7697;51.630;7.484;2023-03-04T23:28:08;101374.19;;;6.00;83.42
15193;BME280;7697;51.630;7.484;2023-03-04T23:33:10;101366.47;;;5.99;83.66
15193;BME280;7697;51.630;7.484;2023-03-04T23:38:11;101357.25;;;5.85;83.11
15193;BME280;7697;51.630;7.484;2023-03-04T23:43:15;101357.53;;;5.82;83.18
15193;BME280;7697;51.630;7.484;2023-03-04T23:48:17;101365.72;;;5.89;83.52
15193;BME280;7697;51.630;7.484;2023-03-04T23:53:19;101366.38;;;5.91;83.42
15193;BME280;7697;51.630;7.484;2023-03-04T23:58:22;101361.53;;;5.86;83.58
